createdAt,value
2017-07-22T00:00:52.252Z,13.54
2017-07-22T00:02:02.204Z,13.55
2017-07-22T00:03:12.165Z,13.49
2017-07-22T00:04:22.430Z,13.5
2017-07-22T00:05:32.702Z,13.49
2017-07-22T00:06:42.971Z,13.54
2017-07-22T00:07:53.237Z,13.52
2017-07-22T00:09:03.506Z,13.52
2017-07-22T00:10:13.463Z,13.49
2017-07-22T00:11:23.737Z,13.54
2017-07-22T00:12:34.010Z,13.5
2017-07-22T00:13:44.277Z,13.52
2017-07-22T00:14:54.228Z,13.55
2017-07-22T00:16:07.966Z,13.58
2017-07-22T00:17:17.923Z,13.67
2017-07-22T00:18:28.194Z,13.54
2017-07-22T00:19:37.842Z,13.67
2017-07-22T00:20:47.798Z,13.65
2017-07-22T00:21:58.063Z,13.6
2017-07-22T00:23:08.021Z,13.62
2017-07-22T00:24:18.303Z,13.62
2017-07-22T00:25:28.610Z,13.61
2017-07-22T00:26:38.875Z,13.68
2017-07-22T00:27:49.147Z,13.71
2017-07-22T00:28:59.420Z,13.64
2017-07-22T00:30:09.376Z,13.75
2017-07-22T00:31:19.647Z,13.79
2017-07-22T00:32:29.603Z,13.78
2017-07-22T00:33:39.556Z,13.78
2017-07-22T00:34:49.825Z,13.75
2017-07-22T00:36:00.090Z,13.68
2017-07-22T00:37:10.068Z,13.78
2017-07-22T00:38:20.332Z,13.76
2017-07-22T00:39:30.666Z,13.75
2017-07-22T00:40:40.937Z,13.67
2017-07-22T00:41:51.207Z,13.76
2017-07-22T00:43:01.478Z,13.83
2017-07-22T00:44:11.759Z,13.79
2017-07-22T00:45:22.067Z,13.7
2017-07-22T00:46:32.355Z,13.73
2017-07-22T00:47:42.643Z,13.78
2017-07-22T00:48:52.908Z,13.83
2017-07-22T00:50:02.866Z,13.71
2017-07-22T00:51:12.827Z,13.8
2017-07-22T00:52:22.778Z,13.73
2017-07-22T00:53:32.732Z,13.79
2017-07-22T00:54:42.996Z,13.79
2017-07-22T00:55:53.263Z,13.7
2017-07-22T00:57:03.540Z,13.73
2017-07-22T00:58:13.496Z,13.82
2017-07-22T00:59:23.762Z,13.78
2017-07-22T01:00:34.031Z,13.75
2017-07-22T01:01:43.985Z,13.75
2017-07-22T01:02:53.945Z,13.8
2017-07-22T01:04:04.220Z,13.79
2017-07-22T01:05:14.174Z,13.75
2017-07-22T01:06:24.449Z,13.78
2017-07-22T01:07:34.717Z,13.71
2017-07-22T01:08:44.986Z,13.73
2017-07-22T01:09:55.251Z,13.71
2017-07-22T01:11:05.525Z,13.79
2017-07-22T01:12:15.480Z,13.73
2017-07-22T01:13:25.764Z,13.8
2017-07-22T01:14:35.723Z,13.86
2017-07-22T01:15:45.989Z,13.8
2017-07-22T01:16:56.261Z,13.85
2017-07-22T01:18:06.525Z,13.87
2017-07-22T01:19:16.479Z,13.89
2017-07-22T01:20:26.777Z,13.86
2017-07-22T01:21:37.047Z,13.79
2017-07-22T01:22:47.324Z,13.83
2017-07-22T01:23:57.280Z,13.8
2017-07-22T01:25:07.549Z,13.79
2017-07-22T01:26:17.821Z,13.83
2017-07-22T01:27:28.092Z,13.86
2017-07-22T01:28:38.046Z,13.86
2017-07-22T01:29:48.004Z,13.86
2017-07-22T01:30:58.277Z,13.89
2017-07-22T01:32:08.548Z,13.95
2017-07-22T01:33:18.502Z,13.85
2017-07-22T01:34:28.456Z,13.95
2017-07-22T01:35:38.725Z,13.82
2017-07-22T01:36:48.679Z,14
2017-07-22T01:37:58.950Z,13.8
2017-07-22T01:39:09.220Z,13.86
2017-07-22T01:40:19.488Z,13.85
2017-07-22T01:41:29.757Z,13.8
2017-07-22T01:42:40.032Z,13.86
2017-07-22T01:43:50.301Z,13.79
2017-07-22T01:45:00.572Z,13.87
2017-07-22T01:46:10.849Z,13.87
2017-07-22T01:47:21.116Z,13.86
2017-07-22T01:48:31.075Z,13.95
2017-07-22T01:49:41.344Z,13.91
2017-07-22T01:50:51.639Z,13.86
2017-07-22T01:52:01.906Z,13.87
2017-07-22T01:53:12.174Z,13.89
2017-07-22T01:54:22.445Z,13.85
2017-07-22T01:55:32.705Z,13.83
2017-07-22T01:56:42.658Z,13.87
2017-07-22T01:57:52.610Z,13.82
2017-07-22T01:59:02.876Z,14
2017-07-22T02:00:12.829Z,13.78
2017-07-22T02:01:22.778Z,13.83
2017-07-22T02:02:33.042Z,13.87
2017-07-22T02:03:43.311Z,13.8
2017-07-22T02:04:53.579Z,13.82
2017-07-22T02:06:03.843Z,13.8
2017-07-22T02:07:14.116Z,13.86
2017-07-22T02:08:24.075Z,13.87
2017-07-22T02:09:34.354Z,13.89
2017-07-22T02:10:44.625Z,13.89
2017-07-22T02:11:54.269Z,13.86
2017-07-22T02:13:04.541Z,13.82
2017-07-22T02:14:14.808Z,13.79
2017-07-22T02:15:24.786Z,13.79
2017-07-22T02:16:35.051Z,13.86
2017-07-22T02:17:45.003Z,13.87
2017-07-22T02:18:55.272Z,13.79
2017-07-22T02:20:05.233Z,13.79
2017-07-22T02:21:15.540Z,13.87
2017-07-22T02:22:25.829Z,13.8
2017-07-22T02:23:35.790Z,13.8
2017-07-22T02:24:45.744Z,13.85
2017-07-22T02:25:56.011Z,13.86
2017-07-22T02:27:06.280Z,13.8
2017-07-22T02:28:16.239Z,13.87
2017-07-22T02:29:26.528Z,13.86
2017-07-22T02:30:36.798Z,13.82
2017-07-22T02:31:46.449Z,13.8
2017-07-22T02:32:56.721Z,14
2017-07-22T02:34:06.996Z,13.85
2017-07-22T02:35:17.277Z,13.93
2017-07-22T02:36:27.308Z,13.95
2017-07-22T02:37:37.585Z,13.97
2017-07-22T02:38:47.228Z,13.94
2017-07-22T02:39:57.500Z,14.01
2017-07-22T02:41:07.774Z,13.93
2017-07-22T02:42:18.067Z,14.07
2017-07-22T02:43:28.336Z,13.97
2017-07-22T02:44:38.615Z,13.98
2017-07-22T02:45:48.571Z,13.94
2017-07-22T02:46:58.837Z,13.98
2017-07-22T02:48:08.795Z,13.94
2017-07-22T02:49:19.082Z,13.93
2017-07-22T02:50:29.361Z,14.01
2017-07-22T02:51:39.635Z,13.95
2017-07-22T02:52:49.596Z,14
2017-07-22T02:53:59.863Z,13.87
2017-07-22T02:55:10.133Z,13.82
2017-07-22T02:56:20.409Z,13.82
2017-07-22T02:57:30.692Z,13.8
2017-07-22T02:58:40.961Z,13.8
2017-07-22T02:59:50.597Z,13.83
2017-07-22T03:01:00.871Z,13.86
2017-07-22T03:02:11.142Z,13.85
2017-07-22T03:03:21.415Z,13.85
2017-07-22T03:04:31.684Z,13.83
2017-07-22T03:05:41.959Z,13.8
2017-07-22T03:06:52.229Z,13.79
2017-07-22T03:08:02.513Z,13.85
2017-07-22T03:09:12.789Z,13.79
2017-07-22T03:10:23.062Z,13.76
2017-07-22T03:11:33.336Z,13.82
2017-07-22T03:12:43.600Z,13.87
2017-07-22T03:13:53.870Z,13.83
2017-07-22T03:15:04.147Z,13.79
2017-07-22T03:16:14.419Z,13.75
2017-07-22T03:17:24.704Z,13.71
2017-07-22T03:18:34.977Z,13.75
2017-07-22T03:19:45.240Z,13.76
2017-07-22T03:20:55.206Z,13.62
2017-07-22T03:22:05.474Z,13.67
2017-07-22T03:23:15.744Z,13.64
2017-07-22T03:24:26.011Z,13.64
2017-07-22T03:25:36.291Z,13.57
2017-07-22T03:26:46.248Z,13.68
2017-07-22T03:27:56.206Z,13.71
2017-07-22T03:29:06.482Z,13.65
2017-07-22T03:30:16.759Z,13.6
2017-07-22T03:31:27.037Z,13.75
2017-07-22T03:32:37.308Z,13.7
2017-07-22T03:33:47.593Z,13.62
2017-07-22T03:34:57.863Z,13.76
2017-07-22T03:36:07.822Z,13.64
2017-07-22T03:37:18.094Z,13.64
2017-07-22T03:38:28.367Z,13.76
2017-07-22T03:39:38.633Z,13.75
2017-07-22T03:40:48.905Z,13.78
2017-07-22T03:41:59.174Z,13.79
2017-07-22T03:43:08.820Z,13.71
2017-07-22T03:44:19.109Z,13.87
2017-07-22T03:45:29.380Z,13.86
2017-07-22T03:46:39.643Z,13.86
2017-07-22T03:47:49.919Z,13.93
2017-07-22T03:48:59.872Z,13.83
2017-07-22T03:50:10.157Z,13.79
2017-07-22T03:51:20.106Z,13.76
2017-07-22T03:52:30.375Z,13.78
2017-07-22T03:53:40.686Z,13.85
2017-07-22T03:54:50.644Z,13.79
2017-07-22T03:56:00.918Z,13.86
2017-07-22T03:57:11.188Z,13.89
2017-07-22T03:58:21.453Z,13.85
2017-07-22T03:59:31.718Z,13.87
2017-07-22T04:00:41.983Z,13.83
2017-07-22T04:01:51.646Z,13.87
2017-07-22T04:03:01.918Z,13.91
2017-07-22T04:04:12.193Z,13.8
2017-07-22T04:05:22.153Z,13.87
2017-07-22T04:06:32.421Z,13.79
2017-07-22T04:07:42.684Z,13.97
2017-07-22T04:08:52.637Z,13.85
2017-07-22T04:10:02.281Z,13.93
2017-07-22T04:11:12.559Z,13.8
2017-07-22T04:12:22.824Z,13.86
2017-07-22T04:13:32.779Z,13.89
2017-07-22T04:14:43.050Z,13.86
2017-07-22T04:15:53.000Z,13.93
2017-07-22T04:17:02.952Z,14
2017-07-22T04:18:13.229Z,13.95
2017-07-22T04:19:23.494Z,13.97
2017-07-22T04:20:33.764Z,13.97
2017-07-22T04:21:44.041Z,14.03
2017-07-22T04:22:54.329Z,13.98
2017-07-22T04:24:04.281Z,13.95
2017-07-22T04:25:14.558Z,13.97
2017-07-22T04:26:24.829Z,13.98
2017-07-22T04:27:35.103Z,14.12
2017-07-22T04:28:45.371Z,14.04
2017-07-22T04:29:55.640Z,14.04
2017-07-22T04:31:05.910Z,14.12
2017-07-22T04:32:16.185Z,14.08
2017-07-22T04:33:26.465Z,14.08
2017-07-22T04:34:36.432Z,14.05
2017-07-22T04:35:46.704Z,14.16
2017-07-22T04:36:56.966Z,14.16
2017-07-22T04:38:07.236Z,14.15
2017-07-22T04:39:17.519Z,14.12
2017-07-22T04:40:27.162Z,14.07
2017-07-22T04:41:37.434Z,14.12
2017-07-22T04:42:47.390Z,14.13
2017-07-22T04:43:57.660Z,14.18
2017-07-22T04:45:07.932Z,14.2
2017-07-22T04:46:17.890Z,14.16
2017-07-22T04:47:28.163Z,14.12
2017-07-22T04:48:38.119Z,14.26
2017-07-22T04:49:48.389Z,14.3
2017-07-22T04:50:58.662Z,14.3
2017-07-22T04:52:08.936Z,14.28
2017-07-22T04:53:19.201Z,14.33
2017-07-22T04:54:29.158Z,14.28
2017-07-22T04:55:39.423Z,14.4
2017-07-22T04:56:49.728Z,14.4
2017-07-22T04:58:00.014Z,14.43
2017-07-22T04:59:10.285Z,14.4
2017-07-22T05:00:20.555Z,14.37
2017-07-22T05:01:30.826Z,14.44
2017-07-22T05:02:41.093Z,14.4
2017-07-22T05:03:51.362Z,14.36
2017-07-22T05:05:01.632Z,14.37
2017-07-22T05:06:11.912Z,14.37
2017-07-22T05:07:22.183Z,14.49
2017-07-22T05:08:31.824Z,14.59
2017-07-22T05:09:42.091Z,14.53
2017-07-22T05:10:52.368Z,14.53
2017-07-22T05:12:02.641Z,14.61
2017-07-22T05:13:12.910Z,14.56
2017-07-22T05:14:23.187Z,14.53
2017-07-22T05:15:33.457Z,14.63
2017-07-22T05:16:43.722Z,14.67
2017-07-22T05:17:53.685Z,14.59
2017-07-22T05:19:03.956Z,14.71
2017-07-22T05:20:14.231Z,14.73
2017-07-22T05:21:24.507Z,14.73
2017-07-22T05:22:34.779Z,14.74
2017-07-22T05:23:44.737Z,14.77
2017-07-22T05:24:55.008Z,14.81
2017-07-22T05:26:04.961Z,14.9
2017-07-22T05:27:14.920Z,14.9
2017-07-22T05:28:24.882Z,14.89
2017-07-22T05:29:35.160Z,14.89
2017-07-22T05:30:45.121Z,14.87
2017-07-22T05:31:55.393Z,14.97
2017-07-22T05:33:05.351Z,14.93
2017-07-22T05:34:15.632Z,14.85
2017-07-22T05:35:25.904Z,14.94
2017-07-22T05:36:36.172Z,14.94
2017-07-22T05:37:46.454Z,14.89
2017-07-22T05:38:56.725Z,14.97
2017-07-22T05:40:07.011Z,14.92
2017-07-22T05:41:17.281Z,14.94
2017-07-22T05:42:27.241Z,14.99
2017-07-22T05:43:37.536Z,14.96
2017-07-22T05:44:47.807Z,14.94
2017-07-22T05:45:58.081Z,15
2017-07-22T05:47:08.041Z,15.08
2017-07-22T05:48:18.311Z,15.02
2017-07-22T05:49:28.577Z,14.94
2017-07-22T05:50:38.854Z,14.99
2017-07-22T05:51:49.130Z,14.97
2017-07-22T05:52:59.091Z,14.99
2017-07-22T05:54:09.367Z,15.02
2017-07-22T05:55:19.322Z,15.1
2017-07-22T05:56:29.594Z,15.15
2017-07-22T05:57:39.873Z,15.17
2017-07-22T05:58:50.146Z,15.18
2017-07-22T06:00:00.414Z,15.08
2017-07-22T06:01:10.370Z,15.15
2017-07-22T06:02:20.644Z,15.11
2017-07-22T06:03:30.283Z,15.23
2017-07-22T06:04:40.550Z,15.14
2017-07-22T06:05:50.822Z,15.18
2017-07-22T06:07:00.794Z,15.18
2017-07-22T06:08:11.066Z,15.12
2017-07-22T06:09:21.338Z,15.07
2017-07-22T06:10:31.613Z,15.05
2017-07-22T06:11:41.882Z,15.15
2017-07-22T06:12:51.836Z,15.15
2017-07-22T06:14:01.795Z,15.22
2017-07-22T06:15:12.069Z,15.18
2017-07-22T06:16:22.344Z,14.96
2017-07-22T06:17:32.306Z,14.99
2017-07-22T06:18:42.264Z,14.82
2017-07-22T06:19:52.548Z,14.93
2017-07-22T06:21:02.846Z,14.97
2017-07-22T06:22:13.117Z,15
2017-07-22T06:23:23.387Z,15.02
2017-07-22T06:24:33.673Z,15.04
2017-07-22T06:25:43.943Z,15.08
2017-07-22T06:26:54.215Z,15.14
2017-07-22T06:28:04.497Z,15.22
2017-07-22T06:29:14.466Z,15.26
2017-07-22T06:30:24.731Z,15.3
2017-07-22T06:31:35.017Z,15.26
2017-07-22T06:32:45.296Z,15.39
2017-07-22T06:33:55.250Z,15.37
2017-07-22T06:35:04.899Z,15.37
2017-07-22T06:36:15.204Z,15.39
2017-07-22T06:37:25.156Z,15.44
2017-07-22T06:38:35.438Z,15.37
2017-07-22T06:39:45.399Z,15.45
2017-07-22T06:40:55.671Z,15.48
2017-07-22T06:42:05.628Z,15.5
2017-07-22T06:43:15.277Z,15.65
2017-07-22T06:44:25.552Z,15.75
2017-07-22T06:45:35.822Z,15.67
2017-07-22T06:46:45.780Z,15.72
2017-07-22T06:47:56.051Z,15.78
2017-07-22T06:49:06.322Z,15.84
2017-07-22T06:50:16.592Z,15.83
2017-07-22T06:51:26.866Z,15.88
2017-07-22T06:52:37.137Z,15.94
2017-07-22T06:53:47.107Z,15.96
2017-07-22T06:54:57.383Z,15.98
2017-07-22T06:56:07.657Z,15.94
2017-07-22T06:57:17.930Z,16.02
2017-07-22T06:58:28.209Z,15.92
2017-07-22T06:59:38.478Z,15.98
2017-07-22T07:00:48.747Z,16.06
2017-07-22T07:01:59.020Z,15.96
2017-07-22T07:03:08.983Z,16.03
2017-07-22T07:04:18.935Z,16.21
2017-07-22T07:05:28.890Z,16.24
2017-07-22T07:06:39.164Z,16.28
2017-07-22T07:07:49.437Z,16.34
2017-07-22T07:08:59.717Z,16.29
2017-07-22T07:10:09.678Z,16.34
2017-07-22T07:11:19.958Z,16.22
2017-07-22T07:12:30.235Z,16.31
2017-07-22T07:13:39.571Z,16.4
2017-07-22T07:14:49.846Z,16.47
2017-07-22T07:16:00.116Z,16.51
2017-07-22T07:17:10.077Z,16.5
2017-07-22T07:18:20.350Z,16.65
2017-07-22T07:19:30.625Z,16.68
2017-07-22T07:20:40.901Z,16.64
2017-07-22T07:21:51.172Z,16.74
2017-07-22T07:23:01.445Z,16.74
2017-07-22T07:24:11.715Z,16.8
2017-07-22T07:25:21.671Z,16.84
2017-07-22T07:26:31.941Z,16.82
2017-07-22T07:27:41.593Z,16.89
2017-07-22T07:28:51.548Z,16.98
2017-07-22T07:30:01.506Z,16.99
2017-07-22T07:31:11.808Z,17.13
2017-07-22T07:32:21.766Z,17.13
2017-07-22T07:33:31.729Z,17.28
2017-07-22T07:34:41.709Z,17.23
2017-07-22T07:35:51.665Z,17.38
2017-07-22T07:37:01.626Z,17.34
2017-07-22T07:38:11.584Z,17.39
2017-07-22T07:39:21.856Z,17.49
2017-07-22T07:40:32.130Z,17.57
2017-07-22T07:41:42.409Z,17.59
2017-07-22T07:42:52.676Z,17.66
2017-07-22T07:44:02.943Z,17.75
2017-07-22T07:45:12.908Z,17.76
2017-07-22T07:46:23.181Z,17.79
2017-07-22T07:47:33.139Z,17.8
2017-07-22T07:48:43.411Z,17.9
2017-07-22T07:49:53.685Z,17.97
2017-07-22T07:51:03.330Z,17.88
2017-07-22T07:52:13.289Z,17.98
2017-07-22T07:53:23.247Z,18.02
2017-07-22T07:54:33.518Z,18.13
2017-07-22T07:55:43.796Z,18.11
2017-07-22T07:56:54.072Z,18.24
2017-07-22T07:58:04.345Z,18.19
2017-07-22T07:59:14.630Z,18.3
2017-07-22T08:00:24.597Z,18.33
2017-07-22T08:01:34.871Z,18.3
2017-07-22T08:02:45.148Z,18.39
2017-07-22T08:03:55.102Z,18.48
2017-07-22T08:05:05.374Z,18.49
2017-07-22T08:06:15.648Z,18.49
2017-07-22T08:07:25.917Z,18.53
2017-07-22T08:08:36.200Z,18.61
2017-07-22T08:09:46.473Z,18.7
2017-07-22T08:10:56.745Z,18.67
2017-07-22T08:12:06.701Z,18.82
2017-07-22T08:13:16.979Z,18.88
2017-07-22T08:14:27.271Z,18.85
2017-07-22T08:15:37.225Z,18.89
2017-07-22T08:16:47.505Z,19.01
2017-07-22T08:17:57.780Z,19.05
2017-07-22T08:19:08.058Z,19.12
2017-07-22T08:20:18.328Z,19.17
2017-07-22T08:21:28.285Z,19.16
2017-07-22T08:22:38.259Z,19.19
2017-07-22T08:23:48.234Z,19.09
2017-07-22T08:24:58.573Z,19.22
2017-07-22T08:26:08.850Z,19.32
2017-07-22T08:27:19.128Z,19.3
2017-07-22T08:28:29.409Z,19.42
2017-07-22T08:29:39.683Z,19.47
2017-07-22T08:30:49.652Z,19.45
2017-07-22T08:31:59.610Z,19.48
2017-07-22T08:33:09.880Z,19.56
2017-07-22T08:34:19.851Z,19.48
2017-07-22T08:35:30.137Z,19.55
2017-07-22T08:36:40.408Z,19.7
2017-07-22T08:37:50.682Z,19.6
2017-07-22T08:39:00.645Z,19.57
2017-07-22T08:40:10.606Z,19.62
2017-07-22T08:41:20.878Z,19.63
2017-07-22T08:42:31.147Z,19.7
2017-07-22T08:43:41.107Z,19.74
2017-07-22T08:44:51.064Z,19.78
2017-07-22T08:46:01.339Z,19.85
2017-07-22T08:47:11.633Z,19.75
2017-07-22T08:48:21.907Z,19.94
2017-07-22T08:49:31.552Z,19.94
2017-07-22T08:50:41.834Z,20.04
2017-07-22T08:51:52.108Z,20.04
2017-07-22T08:53:02.404Z,20.24
2017-07-22T08:54:12.680Z,20.26
2017-07-22T08:55:22.959Z,20.27
2017-07-22T08:56:33.234Z,20.36
2017-07-22T08:57:43.507Z,20.34
2017-07-22T08:58:53.783Z,20.4
2017-07-22T09:00:04.078Z,20.49
2017-07-22T09:01:13.728Z,20.46
2017-07-22T09:02:23.687Z,20.46
2017-07-22T09:03:33.651Z,20.55
2017-07-22T09:04:43.939Z,20.59
2017-07-22T09:05:54.215Z,20.58
2017-07-22T09:07:04.174Z,20.59
2017-07-22T09:08:13.821Z,20.59
2017-07-22T09:09:24.096Z,20.64
2017-07-22T09:10:34.372Z,20.66
2017-07-22T09:11:44.649Z,20.66
2017-07-22T09:12:54.926Z,20.58
2017-07-22T09:14:05.510Z,20.63
2017-07-22T09:15:15.799Z,20.67
2017-07-22T09:16:26.093Z,20.66
2017-07-22T09:17:36.063Z,20.82
2017-07-22T09:18:46.334Z,20.78
2017-07-22T09:19:56.637Z,20.93
2017-07-22T09:21:06.906Z,20.96
2017-07-22T09:22:17.193Z,21.04
2017-07-22T09:23:27.466Z,21.04
2017-07-22T09:24:37.122Z,20.95
2017-07-22T09:25:47.392Z,20.9
2017-07-22T09:26:57.729Z,21.03
2017-07-22T09:28:08.032Z,21.03
2017-07-22T09:29:18.303Z,20.9
2017-07-22T09:30:28.581Z,20.89
2017-07-22T09:31:38.855Z,20.95
2017-07-22T09:32:49.130Z,20.92
2017-07-22T09:33:59.090Z,20.95
2017-07-22T09:35:08.759Z,21.01
2017-07-22T09:36:19.033Z,20.9
2017-07-22T09:37:28.684Z,21.08
2017-07-22T09:38:38.960Z,21.1
2017-07-22T09:39:49.232Z,21.03
2017-07-22T09:40:59.509Z,21.03
2017-07-22T09:42:09.787Z,21.01
2017-07-22T09:43:20.208Z,21.1
2017-07-22T09:44:30.483Z,21.03
2017-07-22T09:45:40.763Z,21.14
2017-07-22T09:46:51.036Z,21.2
2017-07-22T09:48:01.311Z,21.26
2017-07-22T09:49:11.268Z,21.37
2017-07-22T09:50:21.546Z,21.45
2017-07-22T09:51:31.510Z,21.44
2017-07-22T09:52:41.474Z,21.5
2017-07-22T09:53:51.746Z,21.56
2017-07-22T09:55:01.706Z,21.59
2017-07-22T09:56:11.364Z,21.68
2017-07-22T09:57:21.641Z,21.8
2017-07-22T09:58:31.920Z,21.75
2017-07-22T09:59:42.193Z,21.81
2017-07-22T10:00:52.158Z,21.85
2017-07-22T10:02:02.430Z,21.85
2017-07-22T10:03:12.394Z,21.92
2017-07-22T10:04:22.673Z,22.04
2017-07-22T10:05:32.947Z,22.04
2017-07-22T10:06:43.223Z,22.1
2017-07-22T10:07:53.497Z,22.01
2017-07-22T10:09:03.776Z,22.07
2017-07-22T10:10:13.748Z,22.04
2017-07-22T10:11:24.026Z,22.1
2017-07-22T10:12:34.307Z,22.04
2017-07-22T10:13:44.579Z,22.12
2017-07-22T10:14:54.860Z,22.08
2017-07-22T10:16:04.819Z,22.18
2017-07-22T10:17:14.149Z,21.99
2017-07-22T10:18:24.429Z,22.01
2017-07-22T10:19:34.710Z,21.85
2017-07-22T10:20:44.672Z,21.66
2017-07-22T10:21:54.945Z,21.66
2017-07-22T10:23:05.218Z,21.7
2017-07-22T10:24:15.493Z,21.72
2017-07-22T10:25:25.461Z,21.7
2017-07-22T10:26:35.737Z,21.85
2017-07-22T10:27:46.029Z,21.91
2017-07-22T10:28:56.311Z,22.03
2017-07-22T10:30:08.597Z,22.07
2017-07-22T10:31:18.867Z,22.26
2017-07-22T10:32:29.140Z,22.43
2017-07-22T10:33:39.105Z,22.46
2017-07-22T10:34:49.418Z,22.55
2017-07-22T10:35:59.383Z,22.71
2017-07-22T10:37:09.347Z,22.83
2017-07-22T10:38:19.618Z,22.74
2017-07-22T10:39:29.585Z,22.89
2017-07-22T10:40:39.982Z,22.96
2017-07-22T10:41:50.325Z,22.96
2017-07-22T10:43:00.302Z,22.86
2017-07-22T10:44:10.262Z,23.07
2017-07-22T10:45:20.225Z,23.11
2017-07-22T10:46:30.190Z,23.14
2017-07-22T10:47:40.154Z,23.16
2017-07-22T10:48:50.122Z,23.18
2017-07-22T10:50:00.399Z,23.36
2017-07-22T10:51:10.679Z,23.4
2017-07-22T10:52:20.957Z,23.37
2017-07-22T10:53:30.919Z,23.45
2017-07-22T10:54:41.204Z,23.55
2017-07-22T10:55:51.484Z,23.69
2017-07-22T10:57:01.758Z,23.71
2017-07-22T10:58:12.036Z,23.64
2017-07-22T10:59:22.316Z,23.74
2017-07-22T11:00:32.589Z,23.63
2017-07-22T11:01:42.871Z,23.56
2017-07-22T11:02:53.147Z,23.55
2017-07-22T11:04:03.418Z,23.49
2017-07-22T11:05:13.698Z,23.39
2017-07-22T11:06:23.675Z,23.29
2017-07-22T11:07:33.948Z,22.96
2017-07-22T11:08:44.232Z,22.89
2017-07-22T11:09:54.201Z,22.88
2017-07-22T11:11:04.475Z,22.73
2017-07-22T11:12:14.760Z,22.65
2017-07-22T11:13:25.039Z,22.86
2017-07-22T11:14:35.317Z,22.93
2017-07-22T11:15:45.591Z,22.89
2017-07-22T11:16:55.870Z,22.95
2017-07-22T11:18:06.148Z,22.91
2017-07-22T11:19:16.427Z,22.95
2017-07-22T11:20:26.703Z,22.91
2017-07-22T11:21:36.665Z,22.86
2017-07-22T11:22:46.313Z,23.07
2017-07-22T11:23:56.590Z,23.14
2017-07-22T11:25:06.875Z,23.13
2017-07-22T11:26:16.860Z,23.16
2017-07-22T11:27:27.135Z,23.28
2017-07-22T11:28:37.409Z,23.36
2017-07-22T11:29:47.710Z,23.29
2017-07-22T11:30:57.672Z,23.42
2017-07-22T11:32:07.636Z,23.42
2017-07-22T11:33:17.930Z,23.55
2017-07-22T11:34:28.215Z,23.56
2017-07-22T11:35:38.494Z,23.67
2017-07-22T11:36:48.771Z,23.36
2017-07-22T11:37:58.732Z,23.28
2017-07-22T11:39:09.012Z,23.17
2017-07-22T11:40:19.284Z,23.18
2017-07-22T11:41:29.562Z,23.25
2017-07-22T11:42:39.528Z,23.11
2017-07-22T11:43:49.487Z,23.04
2017-07-22T11:44:59.764Z,22.98
2017-07-22T11:46:10.053Z,23.06
2017-07-22T11:47:20.334Z,23.11
2017-07-22T11:48:30.607Z,23.2
2017-07-22T11:49:40.887Z,23.26
2017-07-22T11:50:51.169Z,23.14
2017-07-22T11:52:01.445Z,22.95
2017-07-22T11:53:11.721Z,22.83
2017-07-22T11:54:21.997Z,22.91
2017-07-22T11:55:32.272Z,23.4
2017-07-22T11:56:42.554Z,23.96
2017-07-22T11:57:52.831Z,23.86
2017-07-22T11:59:03.112Z,23.67
2017-07-22T12:00:13.390Z,23.64
2017-07-22T12:01:23.662Z,23.71
2017-07-22T12:02:33.944Z,24.1
2017-07-22T12:03:46.226Z,24.96
2017-07-22T12:04:56.503Z,25.63
2017-07-22T12:06:06.782Z,25.56
2017-07-22T12:07:16.429Z,25.51
2017-07-22T12:08:26.075Z,25.31
2017-07-22T12:09:36.051Z,25.19
2017-07-22T12:10:46.441Z,24.88
2017-07-22T12:11:56.720Z,24.88
2017-07-22T12:13:07.001Z,25.29
2017-07-22T12:14:16.970Z,25.41
2017-07-22T12:15:27.245Z,25.52
2017-07-22T12:16:37.209Z,25.54
2017-07-22T12:17:47.489Z,25.63
2017-07-22T12:18:57.455Z,25.52
2017-07-22T12:20:07.427Z,25.41
2017-07-22T12:21:17.389Z,25.44
2017-07-22T12:22:27.354Z,25.52
2017-07-22T12:23:37.633Z,25.48
2017-07-22T12:24:47.916Z,25.67
2017-07-22T12:25:58.193Z,25.96
2017-07-22T12:27:08.476Z,26.48
2017-07-22T12:28:18.128Z,26.93
2017-07-22T12:29:28.096Z,27.43
2017-07-22T12:30:38.378Z,27.47
2017-07-22T12:31:48.657Z,27.45
2017-07-22T12:32:58.941Z,27.16
2017-07-22T12:34:09.234Z,26.89
2017-07-22T12:35:19.512Z,26.85
2017-07-22T12:36:29.793Z,26.76
2017-07-22T12:37:39.769Z,26.61
2017-07-22T12:38:49.734Z,26.13
2017-07-22T12:40:00.013Z,25.95
2017-07-22T12:41:10.297Z,25.8
2017-07-22T12:42:20.267Z,25.46
2017-07-22T12:43:30.561Z,25.44
2017-07-22T12:44:40.851Z,25.34
2017-07-22T12:45:51.127Z,25.22
2017-07-22T12:47:01.097Z,25.06
2017-07-22T12:48:11.054Z,24.88
2017-07-22T12:49:21.019Z,24.81
2017-07-22T12:50:31.303Z,24.61
2017-07-22T12:51:41.584Z,24.82
2017-07-22T12:52:51.546Z,24.58
2017-07-22T12:54:01.823Z,24.37
2017-07-22T12:55:11.790Z,24.26
2017-07-22T12:56:22.073Z,24.22
2017-07-22T12:57:32.036Z,24.18
2017-07-22T12:58:42.015Z,24.32
2017-07-22T12:59:52.296Z,24.26
2017-07-22T13:01:02.575Z,24.07
2017-07-22T13:02:12.555Z,24.06
2017-07-22T13:03:22.834Z,24.06
2017-07-22T13:04:33.112Z,24.24
2017-07-22T13:05:43.084Z,24.28
2017-07-22T13:06:53.361Z,24.34
2017-07-22T13:08:03.637Z,24.43
2017-07-22T13:09:13.600Z,24.4
2017-07-22T13:10:23.888Z,24.51
2017-07-22T13:11:33.856Z,24.55
2017-07-22T13:12:44.132Z,24.53
2017-07-22T13:13:54.412Z,25.33
2017-07-22T13:15:04.693Z,25.51
2017-07-22T13:16:14.973Z,26.04
2017-07-22T13:17:25.252Z,26.19
2017-07-22T13:18:35.525Z,26.31
2017-07-22T13:19:45.806Z,26.22
2017-07-22T13:20:56.112Z,25.91
2017-07-22T13:22:06.386Z,25.95
2017-07-22T13:23:16.667Z,25.76
2017-07-22T13:24:26.950Z,25.76
2017-07-22T13:25:37.242Z,25.59
2017-07-22T13:26:47.523Z,25.73
2017-07-22T13:27:57.808Z,26.06
2017-07-22T13:29:08.101Z,26.64
2017-07-22T13:30:18.067Z,26.97
2017-07-22T13:31:28.032Z,27.25
2017-07-22T13:32:38.312Z,27.43
2017-07-22T13:33:48.604Z,27.71
2017-07-22T13:34:58.880Z,27.9
2017-07-22T13:36:09.167Z,28.18
2017-07-22T13:37:19.462Z,28.33
2017-07-22T13:38:29.438Z,28.74
2017-07-22T13:39:39.723Z,29.21
2017-07-22T13:40:49.713Z,29.68
2017-07-22T13:41:59.995Z,29.62
2017-07-22T13:43:10.273Z,29.59
2017-07-22T13:44:20.561Z,29.68
2017-07-22T13:45:30.845Z,29.64
2017-07-22T13:46:40.818Z,29.67
2017-07-22T13:47:50.803Z,29.77
2017-07-22T13:49:00.785Z,29.83
2017-07-22T13:50:10.767Z,30.1
2017-07-22T13:51:20.747Z,30.58
2017-07-22T13:52:31.046Z,30.8
2017-07-22T13:53:41.327Z,31.28
2017-07-22T13:54:51.635Z,31.54
2017-07-22T13:56:01.921Z,31.41
2017-07-22T13:57:11.603Z,31.22
2017-07-22T13:58:21.891Z,31.79
2017-07-22T13:59:32.173Z,31.7
2017-07-22T14:00:42.458Z,31.62
2017-07-22T14:01:52.744Z,31.51
2017-07-22T14:03:03.028Z,31.35
2017-07-22T14:04:13.011Z,31.36
2017-07-22T14:05:23.295Z,31.7
2017-07-22T14:06:33.589Z,31.39
2017-07-22T14:07:43.872Z,31.25
2017-07-22T14:08:54.170Z,31.59
2017-07-22T14:10:04.146Z,31.98
2017-07-22T14:11:14.436Z,32.23
2017-07-22T14:12:24.719Z,32.17
2017-07-22T14:13:35.010Z,32.02
2017-07-22T14:14:45.318Z,32.12
2017-07-22T14:15:55.603Z,31.97
2017-07-22T14:17:05.890Z,32.07
2017-07-22T14:18:16.180Z,31.98
2017-07-22T14:19:26.471Z,32.17
2017-07-22T14:20:36.757Z,32.42
2017-07-22T14:21:46.734Z,32.76
2017-07-22T14:22:57.024Z,32.72
2017-07-22T14:24:07.323Z,32.61
2017-07-22T14:25:17.613Z,32.64
2017-07-22T14:26:27.595Z,32.82
2017-07-22T14:27:37.883Z,33.12
2017-07-22T14:28:48.172Z,33.66
2017-07-22T14:29:58.149Z,34.03
2017-07-22T14:31:08.439Z,34.24
2017-07-22T14:32:18.410Z,34.56
2017-07-22T14:33:28.697Z,34.51
2017-07-22T14:34:38.980Z,34.44
2017-07-22T14:35:49.273Z,34.44
2017-07-22T14:36:59.565Z,34.38
2017-07-22T14:38:09.855Z,34.59
2017-07-22T14:39:20.137Z,34.58
2017-07-22T14:40:30.422Z,34.7
2017-07-22T14:41:40.396Z,34.4
2017-07-22T14:42:50.369Z,34.37
2017-07-22T14:44:00.353Z,34.33
2017-07-22T14:45:10.014Z,33.84
2017-07-22T14:46:20.300Z,33.87
2017-07-22T14:47:30.273Z,34.22
2017-07-22T14:48:39.936Z,33.94
2017-07-22T14:49:50.229Z,34.14
2017-07-22T14:51:00.200Z,34.38
2017-07-22T14:52:10.488Z,34.58
2017-07-22T14:53:22.774Z,35.07
2017-07-22T14:54:33.075Z,35.19
2017-07-22T14:55:43.049Z,35.53
2017-07-22T14:56:53.028Z,35.71
2017-07-22T14:58:03.321Z,35.75
2017-07-22T14:59:12.987Z,35.78
2017-07-22T15:00:23.282Z,35.64
2017-07-22T15:01:33.580Z,35.69
2017-07-22T15:02:43.872Z,35.69
2017-07-22T15:03:53.858Z,35.82
2017-07-22T15:05:04.155Z,35.93
2017-07-22T15:06:14.453Z,35.45
2017-07-22T15:07:24.427Z,34.88